createdAt,value
2024-01-28T00:01:07.170Z,1.23
2024-01-28T00:03:11.492Z,1.33
2024-01-28T00:05:16.126Z,0.95
2024-01-28T00:07:20.168Z,1.05
2024-01-28T00:09:24.260Z,0.98
2024-01-28T00:11:28.315Z,0.95
2024-01-28T00:13:35.902Z,0.80
2024-01-28T00:15:39.939Z,1.08
2024-01-28T00:17:45.413Z,0.70
2024-01-28T00:19:50.018Z,0.80
2024-01-28T00:21:54.214Z,0.52
2024-01-28T00:23:57.552Z,0.52
2024-01-28T00:26:03.340Z,0.90
2024-01-28T00:28:08.293Z,1.17
2024-01-28T00:30:13.329Z,0.60
2024-01-28T00:32:17.538Z,0.63
2024-01-28T00:34:23.073Z,0.50
2024-01-28T00:36:27.143Z,0.40
2024-01-28T00:38:32.893Z,0.57
2024-01-28T00:40:36.768Z,0.70
2024-01-28T00:42:40.916Z,1.23
2024-01-28T00:44:44.958Z,0.63
2024-01-28T00:46:48.932Z,0.70
2024-01-28T00:48:53.107Z,0.95
2024-01-28T00:51:01.397Z,0.60
2024-01-28T00:53:06.175Z,0.80
2024-01-28T00:55:11.491Z,0.70
2024-01-28T00:57:15.700Z,0.77
2024-01-28T00:59:19.605Z,0.70
2024-01-28T01:01:23.863Z,0.80
2024-01-28T01:03:28.314Z,1.10
2024-01-28T01:05:32.160Z,0.70
2024-01-28T01:07:37.787Z,0.77
2024-01-28T01:09:42.694Z,0.75
2024-01-28T01:11:46.760Z,0.63
2024-01-28T01:13:53.471Z,0.70
2024-01-28T01:15:57.416Z,1.00
2024-01-28T01:18:00.947Z,0.93
2024-01-28T01:20:05.562Z,0.80
2024-01-28T01:22:09.973Z,1.08
2024-01-28T01:24:15.476Z,0.80
2024-01-28T01:26:19.293Z,0.63
2024-01-28T01:28:23.605Z,0.55
2024-01-28T01:30:27.698Z,0.75
2024-01-28T01:32:31.841Z,0.77
2024-01-28T01:34:37.000Z,0.98
2024-01-28T01:38:48.660Z,0.95
2024-01-28T01:40:54.261Z,0.90
2024-01-28T01:42:58.763Z,0.68
2024-01-28T01:45:02.972Z,1.52
2024-01-28T01:47:07.497Z,1.02
2024-01-28T01:49:12.554Z,1.13
2024-01-28T01:51:15.808Z,0.82
2024-01-28T01:53:20.626Z,1.15
2024-01-28T01:55:24.701Z,0.93
2024-01-28T01:57:29.422Z,0.98
2024-01-28T01:59:33.453Z,1.17
2024-01-28T02:01:37.420Z,0.93
2024-01-28T02:03:41.686Z,0.95
2024-01-28T02:05:45.970Z,1.02
2024-01-28T02:07:50.634Z,1.13
2024-01-28T02:09:55.053Z,1.52
2024-01-28T02:11:59.853Z,1.83
2024-01-28T02:14:05.940Z,1.60
2024-01-28T02:16:10.226Z,2.33
2024-01-28T02:18:14.995Z,1.63
2024-01-28T02:20:19.420Z,1.48
2024-01-28T02:22:23.474Z,1.38
2024-01-28T02:24:29.369Z,1.42
2024-01-28T02:26:33.565Z,1.52
2024-01-28T02:28:37.980Z,1.42
2024-01-28T02:30:43.135Z,2.10
2024-01-28T02:32:51.834Z,1.23
2024-01-28T02:34:54.876Z,1.63
2024-01-28T02:36:58.896Z,1.70
2024-01-28T02:39:03.003Z,2.13
2024-01-28T02:41:08.730Z,2.72
2024-01-28T02:43:12.707Z,3.00
2024-01-28T02:45:15.930Z,1.92
2024-01-28T02:47:20.141Z,2.15
2024-01-28T02:49:25.031Z,2.00
2024-01-28T02:53:33.358Z,2.42
2024-01-28T02:55:38.138Z,2.63
2024-01-28T02:57:43.059Z,2.00
2024-01-28T03:01:51.473Z,1.92
2024-01-28T03:03:55.545Z,2.50
2024-01-28T03:05:59.600Z,2.42
2024-01-28T03:08:04.174Z,2.35
2024-01-28T03:10:10.188Z,2.55
2024-01-28T03:12:14.448Z,2.58
2024-01-28T03:14:20.006Z,2.17
2024-01-28T03:16:23.919Z,3.80
2024-01-28T03:18:28.405Z,2.50
2024-01-28T03:20:32.465Z,2.65
2024-01-28T03:22:36.655Z,2.45
2024-01-28T03:24:42.004Z,2.83
2024-01-28T03:26:46.499Z,2.78
2024-01-28T03:28:50.556Z,3.20
2024-01-28T03:30:56.145Z,3.78
2024-01-28T03:33:00.131Z,2.65
2024-01-28T03:35:04.384Z,2.40
2024-01-28T03:37:07.882Z,4.15
2024-01-28T03:39:11.890Z,3.20
2024-01-28T03:41:16.078Z,2.95
2024-01-28T03:43:20.051Z,3.47
2024-01-28T03:45:24.036Z,2.72
2024-01-28T03:47:29.556Z,2.45
2024-01-28T03:49:33.525Z,2.95
2024-01-28T03:51:37.501Z,2.95
2024-01-28T03:53:42.596Z,3.00
2024-01-28T03:55:46.988Z,2.85
2024-01-28T03:57:50.997Z,3.03
2024-01-28T03:59:55.017Z,2.83
2024-01-28T04:01:59.202Z,2.17
2024-01-28T04:04:05.397Z,2.42
2024-01-28T04:06:09.558Z,2.42
2024-01-28T04:08:13.666Z,2.10
2024-01-28T04:10:17.828Z,2.58
2024-01-28T04:12:21.779Z,2.65
2024-01-28T04:14:25.585Z,2.40
2024-01-28T04:16:29.365Z,2.53
2024-01-28T04:18:32.488Z,2.13
2024-01-28T04:20:37.899Z,2.95
2024-01-28T04:22:42.125Z,2.97
2024-01-28T04:24:45.149Z,2.58
2024-01-28T04:26:49.075Z,2.20
2024-01-28T04:28:53.300Z,2.13
2024-01-28T04:30:56.034Z,2.17
2024-01-28T04:33:00.759Z,3.03
2024-01-28T04:35:04.906Z,2.10
2024-01-28T04:37:10.371Z,2.70
2024-01-28T04:39:15.606Z,2.03
2024-01-28T04:41:18.369Z,3.08
2024-01-28T04:43:22.488Z,2.47
2024-01-28T04:45:26.388Z,2.53
2024-01-28T04:47:29.255Z,2.42
2024-01-28T04:49:35.276Z,2.45
2024-01-28T04:51:39.500Z,2.42
2024-01-28T04:53:45.250Z,2.28
2024-01-28T04:55:49.198Z,3.72
2024-01-28T04:57:53.221Z,3.03
2024-01-28T04:59:57.075Z,2.92
2024-01-28T05:02:00.977Z,2.78
2024-01-28T05:04:06.072Z,3.40
2024-01-28T05:06:11.040Z,2.78
2024-01-28T05:08:16.121Z,2.53
2024-01-28T05:12:25.251Z,3.97
2024-01-28T05:14:29.160Z,4.45
2024-01-28T05:16:33.278Z,2.42
2024-01-28T05:18:37.088Z,3.03
2024-01-28T05:20:41.117Z,2.78
2024-01-28T05:22:45.136Z,3.05
2024-01-28T05:24:51.830Z,3.05
2024-01-28T05:26:57.500Z,2.85
2024-01-28T05:29:07.257Z,3.20
2024-01-28T05:31:11.899Z,2.88
2024-01-28T05:33:16.039Z,2.88
2024-01-28T05:35:20.178Z,3.45
2024-01-28T05:37:24.310Z,4.40
2024-01-28T05:39:28.017Z,3.65
2024-01-28T05:41:31.985Z,2.90
2024-01-28T05:43:38.086Z,3.20
2024-01-28T05:45:41.801Z,3.30
2024-01-28T05:47:45.577Z,3.28
2024-01-28T05:49:49.769Z,3.30
2024-01-28T05:51:53.714Z,4.35
2024-01-28T05:53:57.943Z,4.13
2024-01-28T05:56:00.934Z,3.83
2024-01-28T05:58:05.114Z,3.85
2024-01-28T06:00:13.370Z,4.22
2024-01-28T06:02:17.395Z,3.38
2024-01-28T06:04:21.455Z,3.65
2024-01-28T06:06:25.619Z,3.28
2024-01-28T06:08:30.653Z,3.40
2024-01-28T06:10:34.981Z,3.58
2024-01-28T06:12:39.081Z,3.70
2024-01-28T06:14:43.086Z,4.47
2024-01-28T06:16:47.260Z,4.18
2024-01-28T06:18:51.563Z,3.33
2024-01-28T06:20:55.639Z,3.13
2024-01-28T06:22:59.839Z,5.00
2024-01-28T06:25:03.207Z,4.07
2024-01-28T06:27:07.401Z,4.72
2024-01-28T06:29:11.983Z,4.25
2024-01-28T06:31:16.193Z,4.10
2024-01-28T06:33:21.780Z,3.30
2024-01-28T06:35:25.799Z,4.05
2024-01-28T06:37:29.869Z,3.65
2024-01-28T06:39:34.198Z,4.22
2024-01-28T06:41:38.965Z,5.45
2024-01-28T06:43:42.884Z,4.30
2024-01-28T06:45:45.840Z,5.30
2024-01-28T06:47:50.910Z,5.05
2024-01-28T06:49:56.676Z,5.40
2024-01-28T06:52:00.657Z,4.40
2024-01-28T06:54:04.665Z,3.90
2024-01-28T06:56:09.309Z,4.63
2024-01-28T06:58:13.346Z,4.97
2024-01-28T07:00:18.358Z,4.95
2024-01-28T07:04:30.084Z,3.97
2024-01-28T07:06:35.364Z,4.90
2024-01-28T07:08:39.683Z,5.75
2024-01-28T07:10:43.694Z,4.38
2024-01-28T07:12:47.827Z,5.30
2024-01-28T07:14:51.886Z,5.10
2024-01-28T07:16:55.732Z,4.25
2024-01-28T07:18:59.815Z,4.93
2024-01-28T07:21:04.701Z,5.10
2024-01-28T07:23:09.998Z,5.85
2024-01-28T07:25:15.391Z,4.97
2024-01-28T07:27:18.163Z,6.07
2024-01-28T07:29:21.903Z,6.07
2024-01-28T07:31:25.704Z,5.25
2024-01-28T07:33:29.524Z,5.93
2024-01-28T07:35:33.297Z,6.78
2024-01-28T07:37:37.669Z,4.88
2024-01-28T07:39:42.879Z,5.05
2024-01-28T07:41:48.115Z,5.60
2024-01-28T07:43:52.061Z,5.65
2024-01-28T07:45:56.164Z,6.18
2024-01-28T07:47:59.979Z,5.75
2024-01-28T07:50:04.977Z,5.20
2024-01-28T07:52:08.913Z,5.53
2024-01-28T07:54:12.633Z,5.28
2024-01-28T07:56:18.000Z,4.90
2024-01-28T07:58:21.708Z,4.53
2024-01-28T08:00:27.455Z,4.63
2024-01-28T08:02:32.708Z,5.80
2024-01-28T08:04:36.423Z,6.22
2024-01-28T08:06:40.262Z,4.90
2024-01-28T08:08:44.705Z,4.15
2024-01-28T08:10:48.419Z,3.83
2024-01-28T08:12:54.239Z,3.65
2024-01-28T08:14:58.363Z,5.15
2024-01-28T08:17:00.955Z,4.30
2024-01-28T08:19:06.399Z,4.28
2024-01-28T08:21:10.259Z,3.20
2024-01-28T08:23:13.950Z,3.90
2024-01-28T08:25:18.039Z,4.22
2024-01-28T08:27:22.105Z,3.25
2024-01-28T08:29:27.849Z,3.08
2024-01-28T08:31:31.972Z,3.53
2024-01-28T08:33:34.724Z,3.10
2024-01-28T08:35:42.381Z,4.30
2024-01-28T08:37:46.523Z,3.90
2024-01-28T08:39:50.445Z,4.88
2024-01-28T08:41:54.360Z,3.67
2024-01-28T08:43:57.925Z,3.72
2024-01-28T08:46:05.708Z,3.97
2024-01-28T08:48:09.591Z,3.35
2024-01-28T08:50:13.446Z,3.78
2024-01-28T08:52:17.163Z,3.22
2024-01-28T08:54:21.036Z,3.22
2024-01-28T08:56:24.700Z,3.13
2024-01-28T08:58:28.301Z,3.92
2024-01-28T09:00:31.031Z,3.58
2024-01-28T09:02:37.762Z,3.85
2024-01-28T09:04:41.978Z,2.90
2024-01-28T09:06:45.749Z,3.13
2024-01-28T09:08:49.619Z,2.85
2024-01-28T09:10:53.149Z,2.65
2024-01-28T09:12:57.111Z,3.47
2024-01-28T09:15:01.031Z,2.65
2024-01-28T09:17:05.396Z,3.03
2024-01-28T09:19:10.623Z,3.55
2024-01-28T09:21:14.658Z,3.47
2024-01-28T09:23:18.373Z,3.05
2024-01-28T09:25:22.367Z,3.72
2024-01-28T09:27:25.196Z,3.63
2024-01-28T09:29:29.321Z,2.90
2024-01-28T09:31:33.237Z,3.22
2024-01-28T09:33:37.327Z,2.72
2024-01-28T09:35:43.754Z,3.17
2024-01-28T09:37:48.306Z,2.85
2024-01-28T09:39:52.597Z,3.08
2024-01-28T09:42:05.752Z,2.80
2024-01-28T09:44:11.077Z,2.53
2024-01-28T09:46:16.507Z,2.88
2024-01-28T09:48:25.082Z,2.83
2024-01-28T09:50:30.866Z,3.20
2024-01-28T09:52:38.319Z,2.60
2024-01-28T09:54:41.567Z,2.63
2024-01-28T09:56:46.789Z,3.10
2024-01-28T09:58:50.723Z,3.15
2024-01-28T10:00:55.841Z,3.50
2024-01-28T10:02:59.621Z,3.08
2024-01-28T10:05:03.989Z,2.67
2024-01-28T10:07:09.056Z,2.72
2024-01-28T10:11:17.678Z,2.78
2024-01-28T10:13:21.566Z,3.10
2024-01-28T10:15:27.344Z,2.67
2024-01-28T10:17:31.138Z,3.20
2024-01-28T10:19:38.041Z,3.13
2024-01-28T10:21:42.818Z,4.05
2024-01-28T10:23:47.045Z,3.28
2024-01-28T10:25:52.224Z,2.70
2024-01-28T10:27:56.089Z,4.35
2024-01-28T10:29:59.867Z,3.67
2024-01-28T10:32:02.915Z,3.30
2024-01-28T10:34:07.272Z,3.50
2024-01-28T10:36:12.343Z,3.38
2024-01-28T10:38:21.023Z,2.75
2024-01-28T10:40:31.316Z,2.47
2024-01-28T10:42:39.702Z,4.18
2024-01-28T10:44:49.431Z,3.90
2024-01-28T10:46:55.965Z,4.20
2024-01-28T10:49:05.410Z,3.10
2024-01-28T10:51:14.652Z,3.25
2024-01-28T10:53:19.984Z,3.50
2024-01-28T10:57:29.758Z,3.05
2024-01-28T10:59:38.027Z,3.72
2024-01-28T11:01:42.936Z,3.38
2024-01-28T11:03:46.282Z,3.25
2024-01-28T11:05:50.658Z,2.85
2024-01-28T11:08:00.950Z,3.42
2024-01-28T11:10:10.474Z,3.38
2024-01-28T11:12:15.362Z,4.00
2024-01-28T11:14:20.735Z,3.55
2024-01-28T11:16:25.981Z,3.60
2024-01-28T11:18:32.719Z,4.32
2024-01-28T11:20:36.526Z,3.47
2024-01-28T11:22:51.900Z,3.75
2024-01-28T11:24:55.914Z,4.35
2024-01-28T11:27:01.378Z,3.60
2024-01-28T11:29:07.320Z,4.72
2024-01-28T11:31:22.844Z,3.95
2024-01-28T11:33:35.932Z,3.92
2024-01-28T11:35:41.369Z,4.70
2024-01-28T11:37:53.628Z,4.03
2024-01-28T11:40:06.349Z,3.55
2024-01-28T11:42:10.241Z,3.38
2024-01-28T11:44:14.863Z,3.97
2024-01-28T11:46:18.319Z,4.15
2024-01-28T11:48:23.325Z,3.65
2024-01-28T11:50:28.789Z,3.90
2024-01-28T11:52:32.310Z,4.22
2024-01-28T11:54:36.309Z,3.85
2024-01-28T11:56:43.245Z,3.42
2024-01-28T11:58:48.832Z,3.55
2024-01-28T12:00:53.436Z,3.83
2024-01-28T12:02:57.291Z,3.88
2024-01-28T12:05:00.093Z,3.80
2024-01-28T12:07:05.628Z,3.42
2024-01-28T12:09:09.602Z,3.80
2024-01-28T12:11:15.144Z,3.40
2024-01-28T12:13:18.811Z,3.20
2024-01-28T12:15:22.718Z,4.30
2024-01-28T12:17:26.604Z,3.03
2024-01-28T12:19:30.511Z,4.13
2024-01-28T12:21:34.314Z,3.70
2024-01-28T12:23:40.091Z,4.00
2024-01-28T12:25:43.977Z,3.17
2024-01-28T12:27:46.766Z,2.80
2024-01-28T12:29:50.475Z,3.92
2024-01-28T12:31:54.847Z,3.88
2024-01-28T12:33:59.462Z,3.67
2024-01-28T12:36:02.117Z,4.85
2024-01-28T12:38:06.007Z,3.78
2024-01-28T12:40:13.773Z,3.75
2024-01-28T12:42:20.026Z,4.20
2024-01-28T12:44:23.833Z,3.53
2024-01-28T12:46:27.496Z,3.72
2024-01-28T12:48:31.251Z,4.18
2024-01-28T12:50:35.178Z,4.18
2024-01-28T12:52:38.360Z,4.32
2024-01-28T12:54:42.099Z,3.65
2024-01-28T12:56:47.544Z,3.20
2024-01-28T12:58:51.559Z,3.63
2024-01-28T13:00:55.500Z,4.22
2024-01-28T13:02:59.396Z,3.53
2024-01-28T13:05:03.284Z,3.80
2024-01-28T13:07:07.525Z,3.80
2024-01-28T13:09:14.778Z,4.32
2024-01-28T13:11:18.571Z,3.60
2024-01-28T13:13:23.685Z,3.90
2024-01-28T13:15:26.367Z,5.20
2024-01-28T13:17:30.403Z,4.03
2024-01-28T13:19:34.251Z,4.50
2024-01-28T13:21:38.074Z,4.55
2024-01-28T13:23:41.759Z,4.75
2024-01-28T13:25:45.529Z,4.25
2024-01-28T13:27:49.247Z,3.72
2024-01-28T13:29:55.172Z,3.72
2024-01-28T13:32:00.355Z,4.68
2024-01-28T13:34:04.358Z,4.32
2024-01-28T13:36:09.080Z,5.55
2024-01-28T13:38:12.899Z,3.85
2024-01-28T13:40:16.581Z,4.85
2024-01-28T13:42:20.361Z,4.72
2024-01-28T13:44:23.205Z,5.70
2024-01-28T13:46:28.472Z,5.03
2024-01-28T13:48:32.714Z,5.80
2024-01-28T13:50:36.442Z,6.70
2024-01-28T13:52:40.298Z,5.10
2024-01-28T13:54:43.015Z,5.43
2024-01-28T13:56:47.127Z,6.28
2024-01-28T13:58:50.743Z,6.15
2024-01-28T14:00:53.622Z,5.32
2024-01-28T14:02:58.874Z,6.53
2024-01-28T14:05:04.809Z,6.53
2024-01-28T14:07:08.867Z,5.43
2024-01-28T14:09:13.197Z,6.15
2024-01-28T14:11:17.037Z,5.18
2024-01-28T14:13:20.666Z,5.75
2024-01-28T14:15:24.357Z,5.82
2024-01-28T14:17:28.855Z,6.00
2024-01-28T14:19:34.006Z,5.38
2024-01-28T14:21:37.877Z,5.53
2024-01-28T14:23:41.593Z,5.32
2024-01-28T14:25:45.271Z,4.90
2024-01-28T14:27:49.423Z,5.28
2024-01-28T14:29:53.070Z,5.78
2024-01-28T14:31:56.772Z,5.43
2024-01-28T14:34:02.232Z,5.38
2024-01-28T14:36:08.270Z,5.40
2024-01-28T14:38:12.059Z,5.50
2024-01-28T14:40:15.961Z,4.72
2024-01-28T14:42:19.695Z,5.95
2024-01-28T14:44:23.863Z,5.15
2024-01-28T14:46:28.443Z,4.82
2024-01-28T14:48:31.440Z,5.20
2024-01-28T14:50:38.266Z,4.95
2024-01-28T14:52:43.742Z,4.90
2024-01-28T14:54:47.497Z,5.10
2024-01-28T14:56:52.415Z,5.20
2024-01-28T15:00:59.700Z,4.75
2024-01-28T15:03:03.746Z,5.00
2024-01-28T15:05:08.783Z,5.78
2024-01-28T15:07:12.857Z,5.18
2024-01-28T15:09:18.154Z,4.85
2024-01-28T15:11:22.131Z,5.18
2024-01-28T15:13:24.908Z,4.90
2024-01-28T15:15:28.609Z,4.40
2024-01-28T15:17:32.175Z,6.05
2024-01-28T15:19:35.623Z,5.25
2024-01-28T15:21:39.631Z,5.20
2024-01-28T15:23:43.358Z,4.90
2024-01-28T15:25:48.634Z,5.25
2024-01-28T15:27:52.428Z,4.63
2024-01-28T15:29:57.842Z,4.50
2024-01-28T15:32:01.563Z,4.60
2024-01-28T15:34:04.707Z,5.32
2024-01-28T15:36:10.551Z,4.88
2024-01-28T15:38:16.913Z,5.07
2024-01-28T15:40:20.716Z,5.32
2024-01-28T15:42:26.019Z,5.45
2024-01-28T15:44:29.731Z,4.70
2024-01-28T15:46:34.241Z,5.22
2024-01-28T15:48:38.405Z,4.93
2024-01-28T15:50:42.366Z,5.43
2024-01-28T15:52:46.034Z,5.40
2024-01-28T15:54:49.891Z,5.25
2024-01-28T15:56:53.851Z,5.68
2024-01-28T15:58:58.039Z,6.30
2024-01-28T16:01:01.936Z,4.30
2024-01-28T16:03:06.142Z,4.57
2024-01-28T16:05:11.042Z,4.07
2024-01-28T16:11:23.726Z,4.68
2024-01-28T16:13:29.978Z,5.50
2024-01-28T16:15:36.929Z,5.03
2024-01-28T16:17:40.811Z,4.13
2024-01-28T16:19:44.661Z,4.78
2024-01-28T16:21:48.482Z,4.72
2024-01-28T16:23:52.277Z,5.03
2024-01-28T16:25:58.305Z,4.10
2024-01-28T16:28:03.545Z,5.68
2024-01-28T16:30:08.355Z,4.93
2024-01-28T16:32:13.477Z,4.30
2024-01-28T16:34:17.466Z,5.05
2024-01-28T16:36:21.583Z,3.80
2024-01-28T16:38:25.244Z,4.07
2024-01-28T16:40:29.561Z,4.78
2024-01-28T16:42:33.404Z,4.63
2024-01-28T16:44:37.248Z,4.47
2024-01-28T16:46:42.046Z,3.35
2024-01-28T16:50:50.981Z,4.05
2024-01-28T16:52:53.879Z,3.78
2024-01-28T16:54:57.705Z,4.05
2024-01-28T16:57:01.707Z,4.03
2024-01-28T16:59:06.391Z,4.30
2024-01-28T17:01:11.454Z,5.13
2024-01-28T17:03:16.600Z,4.15
2024-01-28T17:05:21.838Z,4.85
2024-01-28T17:07:25.708Z,4.50
2024-01-28T17:09:29.696Z,4.55
2024-01-28T17:11:33.499Z,4.40
2024-01-28T17:13:37.597Z,3.95
2024-01-28T17:15:41.532Z,4.07
2024-01-28T17:17:46.217Z,4.25
2024-01-28T17:19:50.191Z,4.05
2024-01-28T17:21:57.476Z,3.95
2024-01-28T17:24:01.460Z,4.28
2024-01-28T17:26:06.041Z,5.25
2024-01-28T17:28:10.375Z,5.88
2024-01-28T17:30:16.320Z,4.60
2024-01-28T17:32:19.219Z,5.03
2024-01-28T17:34:23.750Z,5.35
2024-01-28T17:36:28.943Z,5.03
2024-01-28T17:38:34.401Z,4.63
2024-01-28T17:40:39.183Z,4.65
2024-01-28T17:42:44.231Z,3.33
2024-01-28T17:44:49.339Z,2.53
2024-01-28T17:46:54.574Z,1.42
2024-01-28T17:48:59.427Z,0.90
2024-01-28T17:51:03.578Z,2.55
2024-01-28T17:53:07.898Z,1.95
2024-01-28T17:55:13.990Z,5.57
2024-01-28T17:57:18.113Z,2.20
2024-01-28T17:59:23.374Z,2.70
2024-01-28T18:01:27.903Z,1.38
2024-01-28T18:03:32.022Z,1.65
2024-01-28T18:05:37.103Z,2.10
2024-01-28T18:07:40.372Z,1.75
2024-01-28T18:09:44.912Z,1.35
2024-01-28T18:11:50.530Z,1.60
2024-01-28T18:13:54.759Z,0.90
2024-01-28T18:15:59.328Z,1.42
2024-01-28T18:18:04.693Z,1.30
2024-01-28T18:20:10.666Z,1.10
2024-01-28T18:22:15.073Z,1.40
2024-01-28T18:24:19.289Z,1.92
2024-01-28T18:26:25.919Z,1.48
2024-01-28T18:28:31.492Z,1.88
2024-01-28T18:30:35.708Z,2.00
2024-01-28T18:32:40.337Z,2.03
2024-01-28T18:34:44.892Z,1.67
2024-01-28T18:36:49.359Z,1.52
2024-01-28T18:38:55.523Z,1.98
2024-01-28T18:41:01.296Z,2.78
2024-01-28T18:43:06.003Z,2.25
2024-01-28T18:45:12.325Z,1.77
2024-01-28T18:47:16.720Z,1.98
2024-01-28T18:49:23.270Z,2.65
2024-01-28T18:51:27.640Z,2.08
2024-01-28T18:53:32.081Z,2.83
2024-01-28T18:55:36.230Z,1.85
2024-01-28T18:57:40.664Z,1.75
2024-01-28T18:59:45.482Z,2.50
2024-01-28T19:01:50.952Z,1.92
2024-01-28T19:03:55.355Z,7.45
2024-01-28T19:06:00.039Z,3.20
2024-01-28T19:08:04.990Z,2.55
2024-01-28T19:10:10.109Z,2.63
2024-01-28T19:14:19.146Z,3.72
2024-01-28T19:16:23.481Z,3.30
2024-01-28T19:18:29.228Z,3.10
2024-01-28T19:20:33.650Z,3.15
2024-01-28T19:22:37.934Z,2.97
2024-01-28T19:24:42.407Z,2.97
2024-01-28T19:26:46.392Z,3.70
2024-01-28T19:28:50.754Z,3.28
2024-01-28T19:30:55.080Z,2.78
2024-01-28T19:32:59.829Z,3.88
2024-01-28T19:35:05.765Z,4.53
2024-01-28T19:37:10.328Z,3.30
2024-01-28T19:39:15.960Z,3.67
2024-01-28T19:41:19.921Z,5.10
2024-01-28T19:43:22.993Z,4.05
2024-01-28T19:45:27.240Z,2.13
2024-01-28T19:47:30.241Z,2.63
2024-01-28T19:49:34.219Z,3.65
2024-01-28T19:51:39.906Z,3.03
2024-01-28T19:53:43.709Z,3.38
2024-01-28T19:55:47.555Z,3.85
2024-01-28T19:57:52.036Z,2.88
2024-01-28T19:59:56.018Z,2.03
2024-01-28T20:01:59.962Z,2.72
2024-01-28T20:04:04.095Z,8.15
2024-01-28T20:06:18.533Z,11.40
2024-01-28T20:08:28.935Z,2.35
2024-01-28T20:10:32.912Z,19.67
2024-01-28T20:12:39.556Z,3.67
2024-01-28T20:14:44.543Z,2.47
2024-01-28T20:16:48.281Z,2.30
2024-01-28T20:18:52.429Z,2.65
2024-01-28T20:20:56.421Z,3.88
2024-01-28T20:23:00.251Z,6.18
2024-01-28T20:25:05.988Z,1.92
2024-01-28T20:27:09.913Z,5.75
2024-01-28T20:29:14.353Z,4.97
2024-01-28T20:31:19.112Z,1.90
2024-01-28T20:33:23.434Z,5.20
2024-01-28T20:35:29.198Z,2.35
2024-01-28T20:37:33.545Z,2.67
2024-01-28T20:39:36.900Z,2.90
2024-01-28T20:41:42.291Z,3.20
2024-01-28T20:43:46.498Z,2.17
2024-01-28T20:45:50.836Z,4.28
2024-01-28T20:47:54.864Z,1.60
2024-01-28T20:49:59.404Z,1.83
2024-01-28T20:52:03.920Z,1.73
2024-01-28T20:54:08.437Z,2.08
2024-01-28T20:56:12.769Z,1.65
2024-01-28T20:58:18.664Z,1.95
2024-01-28T21:00:23.247Z,1.63
2024-01-28T21:02:27.131Z,2.42
2024-01-28T21:04:31.230Z,2.05
2024-01-28T21:06:35.361Z,1.95
2024-01-28T21:08:39.324Z,1.90
2024-01-28T21:10:44.247Z,1.95
2024-01-28T21:12:48.135Z,2.42
2024-01-28T21:14:53.679Z,2.33
2024-01-28T21:16:57.781Z,1.88
2024-01-28T21:19:00.962Z,1.90
2024-01-28T21:21:05.381Z,1.50
2024-01-28T21:23:08.515Z,1.52
2024-01-28T21:25:12.790Z,2.60
2024-01-28T21:27:16.146Z,2.10
2024-01-28T21:29:20.265Z,1.83
2024-01-28T21:31:25.605Z,1.90
2024-01-28T21:33:29.988Z,2.35
2024-01-28T21:35:33.823Z,1.83
2024-01-28T21:37:37.879Z,2.28
2024-01-28T21:39:42.617Z,1.83
2024-01-28T21:41:46.709Z,1.77
2024-01-28T21:43:51.078Z,2.13
2024-01-28T21:45:55.631Z,2.22
2024-01-28T21:48:01.374Z,2.38
2024-01-28T21:50:07.807Z,2.35
2024-01-28T21:54:16.508Z,1.63
2024-01-28T21:56:20.507Z,1.48
2024-01-28T21:58:24.977Z,2.30
2024-01-28T22:00:29.117Z,2.00
2024-01-28T22:02:33.347Z,1.52
2024-01-28T22:04:38.960Z,2.15
2024-01-28T22:06:43.333Z,1.80
2024-01-28T22:08:46.240Z,2.10
2024-01-28T22:10:50.352Z,1.80
2024-01-28T22:12:54.510Z,1.73
2024-01-28T22:14:58.390Z,1.50
2024-01-28T22:17:02.275Z,2.15
2024-01-28T22:19:06.300Z,1.60
2024-01-28T22:21:11.866Z,1.77
2024-01-28T22:23:14.605Z,2.20
2024-01-28T22:25:18.755Z,2.13
2024-01-28T22:27:21.783Z,2.88
2024-01-28T22:29:26.405Z,2.08
2024-01-28T22:31:31.131Z,1.80
2024-01-28T22:33:35.979Z,2.42
2024-01-28T22:35:38.744Z,1.70
2024-01-28T22:37:43.851Z,2.55
2024-01-28T22:39:47.883Z,2.00
2024-01-28T22:41:52.024Z,2.10
2024-01-28T22:43:55.900Z,1.98
2024-01-28T22:46:00.028Z,2.00
2024-01-28T22:48:04.296Z,2.00
2024-01-28T22:50:11.081Z,1.60
2024-01-28T22:52:15.857Z,1.60
2024-01-28T22:54:21.162Z,1.92
2024-01-28T22:56:24.693Z,1.75
2024-01-28T22:58:28.392Z,1.88
2024-01-28T23:00:35.015Z,1.80
2024-01-28T23:02:38.830Z,1.40
2024-01-28T23:04:42.842Z,1.80
2024-01-28T23:06:46.831Z,1.50
2024-01-28T23:08:50.520Z,1.23
2024-01-28T23:10:55.929Z,1.90
2024-01-28T23:13:03.492Z,1.63
2024-01-28T23:15:15.005Z,1.83
2024-01-28T23:17:25.381Z,2.20
2024-01-28T23:19:29.474Z,1.30
2024-01-28T23:21:33.323Z,1.50
2024-01-28T23:23:38.206Z,2.55
2024-01-28T23:25:42.127Z,2.00
2024-01-28T23:27:47.636Z,1.85
2024-01-28T23:29:51.589Z,2.10
2024-01-28T23:31:55.543Z,1.67
2024-01-28T23:34:03.770Z,1.42
2024-01-28T23:36:08.594Z,1.90
2024-01-28T23:38:12.426Z,2.15
2024-01-28T23:40:16.431Z,2.75
2024-01-28T23:42:20.231Z,1.98
2024-01-28T23:44:25.431Z,2.53
2024-01-28T23:46:29.464Z,2.13
2024-01-28T23:48:33.205Z,2.17
2024-01-28T23:50:37.108Z,1.60
2024-01-28T23:52:40.267Z,1.80
2024-01-28T23:54:44.418Z,2.00
2024-01-28T23:56:48.388Z,2.08
2024-01-28T23:58:51.064Z,1.52
